createdAt,value
2022-10-04T00:01:59.924Z,76.20
2022-10-04T00:05:12.589Z,76.10
2022-10-04T00:07:46.964Z,75.90
2022-10-04T00:10:22.346Z,76.30
2022-10-04T00:13:17.961Z,77.10
2022-10-04T00:15:51.065Z,76.40
2022-10-04T00:18:32.258Z,76.40
2022-10-04T00:21:04.578Z,76.30
2022-10-04T00:23:39.750Z,76.40
2022-10-04T00:26:14.565Z,76.50
2022-10-04T00:28:46.219Z,76.60
2022-10-04T00:31:17.090Z,76.60
2022-10-04T00:34:09.836Z,76.60
2022-10-04T00:36:46.472Z,76.50
2022-10-04T00:39:17.060Z,76.80
2022-10-04T00:41:49.643Z,76.80
2022-10-04T00:44:29.359Z,76.90
2022-10-04T00:46:58.934Z,77.00
2022-10-04T00:49:32.739Z,77.10
2022-10-04T00:52:14.777Z,77.10
2022-10-04T00:54:47.145Z,77.20
2022-10-04T00:57:23.720Z,77.30
2022-10-04T01:00:08.481Z,77.20
2022-10-04T01:03:14.951Z,77.30
2022-10-04T01:05:45.996Z,77.10
2022-10-04T01:08:31.387Z,77.30
2022-10-04T01:11:13.378Z,77.20
2022-10-04T01:13:42.873Z,77.40
2022-10-04T01:16:25.079Z,77.30
2022-10-04T01:18:52.361Z,77.40
2022-10-04T01:21:19.342Z,77.50
2022-10-04T01:23:49.883Z,77.60
2022-10-04T01:26:34.632Z,77.60
2022-10-04T01:29:16.755Z,77.60
2022-10-04T01:31:46.640Z,77.80
2022-10-04T01:34:28.345Z,77.80
2022-10-04T01:36:58.085Z,77.90
2022-10-04T01:39:26.748Z,77.90
2022-10-04T01:42:01.814Z,77.90
2022-10-04T01:44:37.199Z,78.00
2022-10-04T01:47:09.772Z,78.00
2022-10-04T01:49:39.203Z,78.00
2022-10-04T01:52:30.621Z,78.10
2022-10-04T01:55:15.043Z,78.00
2022-10-04T01:57:50.485Z,78.00
2022-10-04T02:00:20.721Z,78.00
2022-10-04T02:03:09.972Z,78.00
2022-10-04T02:05:44.353Z,78.00
2022-10-04T02:08:16.355Z,78.10
2022-10-04T02:10:45.357Z,78.20
2022-10-04T02:13:20.499Z,78.20
2022-10-04T02:15:49.119Z,78.10
2022-10-04T02:18:20.728Z,78.20
2022-10-04T02:20:49.638Z,78.20
2022-10-04T02:23:21.395Z,78.20
2022-10-04T02:25:48.406Z,78.20
2022-10-04T02:28:16.293Z,78.20
2022-10-04T02:31:07.474Z,78.20
2022-10-04T02:33:39.126Z,78.20
2022-10-04T02:36:08.103Z,78.10
2022-10-04T02:38:41.925Z,78.20
2022-10-04T02:41:33.117Z,78.20
2022-10-04T02:44:15.624Z,78.00
2022-10-04T02:47:09.412Z,78.20
2022-10-04T02:49:58.669Z,78.00
2022-10-04T02:52:42.249Z,78.00
2022-10-04T02:55:24.876Z,78.90
2022-10-04T02:57:55.492Z,78.00
2022-10-04T03:00:28.918Z,78.20
2022-10-04T03:03:31.679Z,78.20
2022-10-04T03:06:09.242Z,78.00
2022-10-04T03:08:50.355Z,78.20
2022-10-04T03:11:20.809Z,78.30
2022-10-04T03:13:51.092Z,78.30
2022-10-04T03:16:19.386Z,78.50
2022-10-04T03:18:48.414Z,78.40
2022-10-04T03:21:17.829Z,78.60
2022-10-04T03:23:46.498Z,78.70
2022-10-04T03:26:28.280Z,78.70
2022-10-04T03:28:57.172Z,78.70
2022-10-04T03:31:27.832Z,78.80
2022-10-04T03:33:56.436Z,79.70
2022-10-04T03:36:25.698Z,78.80
2022-10-04T03:38:55.270Z,78.80
2022-10-04T03:41:25.366Z,78.80
2022-10-04T03:43:54.896Z,78.90
2022-10-04T03:46:23.664Z,78.90
2022-10-04T03:48:57.492Z,79.00
2022-10-04T03:51:26.373Z,79.20
2022-10-04T03:53:57.368Z,79.20
2022-10-04T03:56:32.906Z,80.00
2022-10-04T03:59:02.531Z,79.30
2022-10-04T04:01:45.074Z,79.30
2022-10-04T04:05:04.675Z,79.30
2022-10-04T04:07:40.098Z,79.20
2022-10-04T04:10:27.371Z,79.40
2022-10-04T04:13:18.338Z,79.40
2022-10-04T04:15:45.695Z,79.50
2022-10-04T04:18:23.158Z,79.50
2022-10-04T04:20:52.120Z,79.50
2022-10-04T04:23:44.492Z,79.70
2022-10-04T04:26:43.590Z,79.50
2022-10-04T04:29:46.645Z,79.60
2022-10-04T04:32:24.270Z,79.60
2022-10-04T04:35:07.764Z,79.70
2022-10-04T04:37:35.787Z,79.90
2022-10-04T04:40:32.627Z,80.00
2022-10-04T04:43:02.666Z,79.70
2022-10-04T04:45:34.089Z,80.00
2022-10-04T04:48:03.624Z,80.10
2022-10-04T04:50:36.279Z,80.20
2022-10-04T04:53:23.657Z,80.30
2022-10-04T04:56:04.918Z,80.30
2022-10-04T04:58:42.076Z,80.20
2022-10-04T05:01:28.816Z,80.30
2022-10-04T05:04:12.495Z,80.20
2022-10-04T05:06:42.338Z,80.40
2022-10-04T05:09:26.258Z,80.50
2022-10-04T05:11:57.292Z,80.30
2022-10-04T05:14:24.243Z,80.50
2022-10-04T05:16:53.668Z,80.50
2022-10-04T05:19:37.592Z,80.60
2022-10-04T05:22:13.535Z,80.50
2022-10-04T05:24:46.897Z,80.70
2022-10-04T05:27:25.762Z,80.60
2022-10-04T05:30:19.904Z,80.70
2022-10-04T05:33:06.773Z,80.70
2022-10-04T05:36:02.145Z,80.70
2022-10-04T05:38:41.114Z,80.60
2022-10-04T05:41:16.878Z,80.90
2022-10-04T05:43:53.888Z,80.90
2022-10-04T05:46:31.507Z,81.70
2022-10-04T05:49:19.402Z,80.90
2022-10-04T05:52:00.971Z,80.90
2022-10-04T05:54:31.407Z,81.00
2022-10-04T05:57:20.451Z,81.20
2022-10-04T06:00:12.767Z,81.20
2022-10-04T06:03:02.655Z,81.20
2022-10-04T06:05:55.406Z,81.20
2022-10-04T06:08:40.657Z,81.20
2022-10-04T06:11:33.499Z,81.10
2022-10-04T06:14:41.944Z,81.10
2022-10-04T06:18:02.461Z,81.10
2022-10-04T06:20:46.820Z,81.10
2022-10-04T06:23:16.379Z,81.20
2022-10-04T06:25:59.104Z,81.20
2022-10-04T06:28:37.163Z,81.30
2022-10-04T06:31:24.469Z,81.30
2022-10-04T06:34:17.738Z,81.20
2022-10-04T06:36:53.502Z,81.40
2022-10-04T06:39:49.303Z,81.40
2022-10-04T06:42:21.955Z,81.30
2022-10-04T06:45:17.971Z,81.40
2022-10-04T06:48:31.565Z,81.40
2022-10-04T06:51:15.373Z,81.30
2022-10-04T06:53:58.683Z,81.30
2022-10-04T06:56:31.094Z,81.30
2022-10-04T06:59:20.949Z,81.40
2022-10-04T07:01:56.311Z,81.30
2022-10-04T07:04:49.969Z,81.20
2022-10-04T07:07:25.196Z,81.30
2022-10-04T07:09:59.912Z,81.30
2022-10-04T07:12:27.730Z,81.30
2022-10-04T07:15:01.144Z,81.30
2022-10-04T07:17:39.591Z,81.30
2022-10-04T07:20:19.193Z,81.20
2022-10-04T07:22:52.560Z,81.30
2022-10-04T07:25:48.453Z,81.20
2022-10-04T07:28:38.617Z,81.20
2022-10-04T07:31:14.399Z,81.20
2022-10-04T07:33:49.458Z,81.20
2022-10-04T07:36:26.836Z,81.20
2022-10-04T07:39:00.338Z,81.40
2022-10-04T07:41:38.989Z,81.40
2022-10-04T07:44:17.682Z,81.40
2022-10-04T07:47:20.748Z,81.40
2022-10-04T07:49:51.012Z,81.40
2022-10-04T07:52:30.009Z,82.60
2022-10-04T07:55:15.626Z,83.40
2022-10-04T07:58:17.451Z,81.70
2022-10-04T08:01:38.223Z,79.00
2022-10-04T08:04:22.855Z,79.30
2022-10-04T08:07:12.567Z,76.60
2022-10-04T08:10:03.629Z,75.10
2022-10-04T08:12:53.258Z,73.10
2022-10-04T08:15:33.382Z,74.00
2022-10-04T08:18:23.504Z,71.40
2022-10-04T08:21:33.391Z,70.30
2022-10-04T08:24:11.703Z,70.60
2022-10-04T08:27:12.659Z,68.70
2022-10-04T08:30:13.388Z,69.30
2022-10-04T08:32:51.365Z,69.70
2022-10-04T08:35:36.231Z,68.40
2022-10-04T08:38:27.895Z,68.60
2022-10-04T08:41:13.171Z,69.40
2022-10-04T08:43:59.527Z,69.90
2022-10-04T08:46:32.454Z,69.80
2022-10-04T08:49:11.154Z,70.70
2022-10-04T08:52:15.437Z,70.70
2022-10-04T08:55:14.742Z,70.90
2022-10-04T08:58:25.063Z,70.90
2022-10-04T09:01:14.527Z,70.30
2022-10-04T09:04:34.977Z,71.50
2022-10-04T09:07:39.449Z,71.40
2022-10-04T09:11:00.357Z,71.20
2022-10-04T09:13:45.223Z,70.40
2022-10-04T09:16:37.252Z,69.20
2022-10-04T09:19:32.947Z,69.40
2022-10-04T09:22:31.634Z,69.20
2022-10-04T09:25:30.579Z,69.50
2022-10-04T09:28:38.697Z,69.30
2022-10-04T09:31:33.062Z,69.30
2022-10-04T09:34:10.875Z,69.30
2022-10-04T09:36:49.457Z,69.50
2022-10-04T09:39:35.836Z,69.30
2022-10-04T09:42:15.096Z,69.50
2022-10-04T09:45:06.429Z,68.50
2022-10-04T09:47:41.084Z,68.30
2022-10-04T09:50:26.717Z,69.00
2022-10-04T09:53:31.115Z,69.20
2022-10-04T09:56:10.744Z,69.20
2022-10-04T09:58:58.532Z,69.10
2022-10-04T10:01:53.657Z,69.30
2022-10-04T10:04:29.676Z,69.20
2022-10-04T10:07:16.752Z,68.90
2022-10-04T10:10:29.089Z,68.70
2022-10-04T10:13:42.949Z,68.50
2022-10-04T10:16:22.011Z,68.00
2022-10-04T10:19:05.563Z,68.30
2022-10-04T10:21:41.697Z,68.00
2022-10-04T10:24:39.458Z,67.40
2022-10-04T10:27:26.163Z,66.70
2022-10-04T10:30:23.044Z,66.90
2022-10-04T10:33:05.940Z,65.30
2022-10-04T10:35:49.187Z,66.50
2022-10-04T10:38:33.377Z,66.10
2022-10-04T10:41:11.443Z,66.10
2022-10-04T10:44:00.174Z,65.90
2022-10-04T10:46:45.854Z,65.60
2022-10-04T10:49:12.800Z,65.10
2022-10-04T10:52:07.546Z,65.50
2022-10-04T10:55:09.863Z,64.90
2022-10-04T10:58:12.337Z,64.60
2022-10-04T11:01:00.848Z,65.10
2022-10-04T11:03:49.144Z,65.00
2022-10-04T11:06:39.428Z,65.10
2022-10-04T11:09:25.167Z,64.90
2022-10-04T11:12:12.856Z,64.30
2022-10-04T11:14:51.878Z,63.90
2022-10-04T11:17:56.363Z,64.30
2022-10-04T11:21:04.587Z,64.60
2022-10-04T11:23:51.886Z,64.60
2022-10-04T11:26:49.179Z,64.50
2022-10-04T11:29:31.244Z,64.10
2022-10-04T11:32:01.048Z,64.30
2022-10-04T11:34:59.811Z,63.50
2022-10-04T11:37:57.333Z,63.00
2022-10-04T11:40:45.107Z,62.90
2022-10-04T11:43:42.548Z,63.30
2022-10-04T11:46:24.171Z,62.60
2022-10-04T11:49:01.502Z,62.60
2022-10-04T11:51:47.959Z,62.60
2022-10-04T11:54:27.477Z,62.10
2022-10-04T11:57:15.876Z,62.20
2022-10-04T11:59:53.244Z,62.00
2022-10-04T12:02:36.696Z,61.90
2022-10-04T12:05:42.382Z,61.40
2022-10-04T12:08:41.611Z,61.30
2022-10-04T12:12:14.579Z,61.40
2022-10-04T12:14:59.884Z,61.40
2022-10-04T12:17:42.591Z,62.10
2022-10-04T12:20:52.308Z,62.30
2022-10-04T12:23:33.671Z,61.20
2022-10-04T12:26:19.494Z,61.90
2022-10-04T12:29:03.103Z,61.80
2022-10-04T12:31:41.445Z,61.70
2022-10-04T12:34:24.712Z,61.40
2022-10-04T12:37:20.700Z,61.00
2022-10-04T12:40:12.389Z,60.10
2022-10-04T12:42:52.166Z,59.00
2022-10-04T12:45:52.644Z,59.80
2022-10-04T12:48:25.891Z,60.20
2022-10-04T12:51:07.095Z,59.30
2022-10-04T12:53:42.883Z,59.10
2022-10-04T12:56:22.318Z,59.30
2022-10-04T12:59:20.020Z,59.30
2022-10-04T13:02:05.604Z,58.80
2022-10-04T13:04:36.256Z,58.60
2022-10-04T13:07:24.309Z,58.30
2022-10-04T13:10:23.580Z,57.90
2022-10-04T13:13:23.820Z,57.80
2022-10-04T13:19:09.708Z,57.70
2022-10-04T13:21:36.661Z,57.80
2022-10-04T13:25:00.871Z,57.40
2022-10-04T13:27:33.629Z,57.40
2022-10-04T13:30:14.181Z,57.90
2022-10-04T13:32:52.758Z,57.90
2022-10-04T13:35:36.542Z,57.60
2022-10-04T13:38:40.212Z,57.40
2022-10-04T13:41:37.779Z,57.50
2022-10-04T13:44:26.405Z,57.40
2022-10-04T13:47:04.982Z,57.60
2022-10-04T13:50:09.587Z,57.30
2022-10-04T13:53:31.153Z,57.20
2022-10-04T13:56:37.121Z,57.00
2022-10-04T13:59:35.659Z,57.20
2022-10-04T14:02:10.221Z,57.30
2022-10-04T14:04:57.532Z,57.30
2022-10-04T14:07:45.011Z,57.40
2022-10-04T14:10:35.132Z,57.50
2022-10-04T14:13:40.691Z,57.80
2022-10-04T14:16:38.182Z,58.00
2022-10-04T14:19:45.961Z,58.00
2022-10-04T14:22:24.339Z,58.20
2022-10-04T14:25:23.338Z,58.20
2022-10-04T14:28:35.078Z,58.20
2022-10-04T14:31:19.982Z,58.00
2022-10-04T14:34:02.100Z,57.80
2022-10-04T14:36:53.905Z,57.60
2022-10-04T14:39:58.212Z,56.90
2022-10-04T14:42:56.855Z,57.30
2022-10-04T14:45:41.072Z,57.00
2022-10-04T14:48:29.511Z,57.50
2022-10-04T14:51:11.333Z,57.60
2022-10-04T14:53:49.909Z,57.60
2022-10-04T14:56:20.998Z,57.70
2022-10-04T14:59:07.947Z,57.80
2022-10-04T15:01:38.965Z,58.20
2022-10-04T15:04:29.805Z,58.10
2022-10-04T15:07:17.826Z,58.20
2022-10-04T15:09:52.540Z,58.30
2022-10-04T15:12:52.023Z,58.30
2022-10-04T15:15:33.546Z,58.30
2022-10-04T15:18:28.259Z,58.20
2022-10-04T15:21:03.866Z,58.20
2022-10-04T15:23:45.947Z,58.40
2022-10-04T15:26:18.872Z,58.50
2022-10-04T15:28:58.521Z,58.60
2022-10-04T15:31:38.224Z,58.60
2022-10-04T15:34:42.599Z,59.40
2022-10-04T15:37:39.404Z,58.70
2022-10-04T15:40:37.714Z,58.80
2022-10-04T15:43:22.975Z,58.90
2022-10-04T15:46:17.454Z,59.20
2022-10-04T15:49:06.427Z,59.20
2022-10-04T15:51:59.068Z,59.30
2022-10-04T15:54:51.960Z,59.50
2022-10-04T15:57:40.518Z,59.60
2022-10-04T16:00:26.594Z,59.70
2022-10-04T16:03:07.598Z,59.90
2022-10-04T16:05:57.793Z,60.10
2022-10-04T16:08:52.587Z,60.20
2022-10-04T16:11:37.407Z,60.50
2022-10-04T16:14:25.958Z,60.60
2022-10-04T16:17:03.507Z,60.80
2022-10-04T16:19:56.553Z,60.90
2022-10-04T16:22:34.688Z,61.00
2022-10-04T16:25:26.340Z,61.20
2022-10-04T16:27:56.210Z,61.20
2022-10-04T16:30:46.249Z,61.50
2022-10-04T16:33:26.692Z,61.50
2022-10-04T16:36:05.995Z,61.70
2022-10-04T16:38:36.871Z,61.90
2022-10-04T16:41:16.123Z,62.00
2022-10-04T16:43:53.889Z,62.20
2022-10-04T16:46:38.668Z,62.30
2022-10-04T16:49:37.637Z,62.40
2022-10-04T16:52:48.306Z,62.40
2022-10-04T16:55:45.796Z,62.60
2022-10-04T16:58:30.125Z,62.90
2022-10-04T17:01:27.693Z,63.00
2022-10-04T17:04:00.704Z,63.10
2022-10-04T17:06:51.558Z,63.40
2022-10-04T17:09:40.113Z,63.40
2022-10-04T17:12:40.833Z,63.60
2022-10-04T17:15:27.741Z,63.70
2022-10-04T17:18:13.123Z,63.90
2022-10-04T17:20:42.946Z,64.00
2022-10-04T17:23:31.239Z,64.10
2022-10-04T17:26:15.796Z,64.10
2022-10-04T17:28:57.635Z,64.30
2022-10-04T17:31:45.220Z,64.40
2022-10-04T17:34:33.367Z,64.40
2022-10-04T17:37:17.459Z,64.50
2022-10-04T17:39:56.689Z,64.60
2022-10-04T17:42:39.941Z,64.80
2022-10-04T17:45:31.276Z,64.80
2022-10-04T17:48:48.692Z,64.80
2022-10-04T17:52:10.899Z,65.10
2022-10-04T17:55:13.220Z,65.20
2022-10-04T17:57:49.421Z,65.30
2022-10-04T18:00:24.627Z,65.50
2022-10-04T18:03:13.215Z,65.70
2022-10-04T18:05:43.092Z,65.60
2022-10-04T18:08:15.291Z,66.00
2022-10-04T18:10:50.669Z,66.10
2022-10-04T18:13:24.391Z,66.30
2022-10-04T18:16:00.451Z,66.30
2022-10-04T18:18:47.958Z,66.50
2022-10-04T18:21:21.844Z,67.30
2022-10-04T18:24:19.338Z,67.50
2022-10-04T18:27:05.222Z,66.80
2022-10-04T18:29:40.042Z,66.80
2022-10-04T18:32:25.538Z,67.00
2022-10-04T18:34:57.125Z,67.00
2022-10-04T18:37:37.256Z,67.10
2022-10-04T18:40:25.721Z,67.10
2022-10-04T18:42:57.934Z,67.10
2022-10-04T18:45:33.735Z,67.20
2022-10-04T18:48:15.686Z,67.30
2022-10-04T18:50:47.187Z,67.30
2022-10-04T18:53:23.018Z,67.30
2022-10-04T18:55:57.739Z,67.30
2022-10-04T18:59:12.084Z,67.40
2022-10-04T19:02:01.142Z,67.20
2022-10-04T19:04:46.543Z,67.20
2022-10-04T19:07:21.382Z,67.30
2022-10-04T19:09:51.087Z,67.30
2022-10-04T19:12:44.093Z,68.10
2022-10-04T19:15:26.073Z,67.30
2022-10-04T19:18:02.781Z,67.30
2022-10-04T19:20:45.771Z,67.40
2022-10-04T19:23:48.075Z,67.40
2022-10-04T19:26:33.008Z,67.40
2022-10-04T19:29:10.748Z,67.40
2022-10-04T19:32:27.225Z,67.50
2022-10-04T19:35:09.486Z,67.40
2022-10-04T19:37:57.919Z,67.50
2022-10-04T19:40:38.457Z,67.60
2022-10-04T19:43:10.711Z,67.70
2022-10-04T19:45:58.993Z,67.80
2022-10-04T19:48:29.487Z,67.80
2022-10-04T19:51:13.459Z,68.70
2022-10-04T19:53:45.332Z,68.00
2022-10-04T19:56:25.636Z,67.90
2022-10-04T19:58:58.444Z,68.00
2022-10-04T20:01:26.091Z,68.10
2022-10-04T20:04:12.154Z,68.00
2022-10-04T20:06:48.397Z,68.10
2022-10-04T20:09:29.896Z,68.00
2022-10-04T20:11:57.199Z,68.00
2022-10-04T20:14:23.851Z,68.00
2022-10-04T20:16:51.463Z,68.00
2022-10-04T20:19:28.742Z,68.20
2022-10-04T20:21:56.492Z,68.10
2022-10-04T20:24:44.200Z,68.20
2022-10-04T20:27:29.635Z,68.10
2022-10-04T20:29:57.181Z,68.10
2022-10-04T20:32:26.992Z,68.20
2022-10-04T20:34:55.335Z,68.20
2022-10-04T20:37:22.212Z,68.30
2022-10-04T20:39:52.170Z,68.30
2022-10-04T20:42:39.676Z,68.30
2022-10-04T20:45:09.376Z,68.30
2022-10-04T20:47:38.162Z,68.40
2022-10-04T20:50:11.315Z,68.50
2022-10-04T20:52:43.136Z,68.50
2022-10-04T20:55:19.796Z,68.50
2022-10-04T20:57:46.624Z,68.60
2022-10-04T21:00:25.720Z,68.60
2022-10-04T21:03:10.229Z,68.70
2022-10-04T21:05:39.872Z,68.70
2022-10-04T21:08:35.668Z,68.80
2022-10-04T21:11:14.300Z,68.70
2022-10-04T21:14:01.928Z,68.90
2022-10-04T21:16:41.139Z,68.90
2022-10-04T21:19:32.784Z,68.90
2022-10-04T21:22:01.408Z,69.00
2022-10-04T21:24:54.999Z,69.00
2022-10-04T21:27:35.872Z,69.00
2022-10-04T21:30:04.400Z,69.10
2022-10-04T21:32:36.883Z,69.10
2022-10-04T21:35:05.675Z,69.10
2022-10-04T21:37:33.119Z,69.20
2022-10-04T21:39:59.893Z,69.20
2022-10-04T21:42:29.473Z,69.20
2022-10-04T21:44:56.429Z,69.30
2022-10-04T21:47:23.348Z,69.20
2022-10-04T21:49:51.872Z,69.30
2022-10-04T21:52:19.173Z,69.40
2022-10-04T21:54:46.600Z,69.50
2022-10-04T21:57:13.772Z,69.40
2022-10-04T21:59:40.463Z,69.50
2022-10-04T22:02:10.006Z,69.60
2022-10-04T22:04:38.154Z,69.50
2022-10-04T22:07:08.009Z,69.60
2022-10-04T22:09:36.136Z,69.70
2022-10-04T22:12:03.018Z,69.70
2022-10-04T22:14:29.817Z,69.70
2022-10-04T22:16:56.622Z,69.80
2022-10-04T22:19:23.459Z,69.80
2022-10-04T22:21:50.341Z,69.90
2022-10-04T22:24:20.317Z,70.00
2022-10-04T22:26:47.916Z,70.00
2022-10-04T22:29:17.803Z,69.90
2022-10-04T22:31:50.649Z,70.00
2022-10-04T22:34:20.060Z,70.20
2022-10-04T22:36:49.357Z,70.20
2022-10-04T22:39:21.599Z,70.30
2022-10-04T22:41:53.476Z,70.30
2022-10-04T22:44:31.386Z,70.30
2022-10-04T22:47:00.977Z,70.30
2022-10-04T22:49:31.594Z,70.40
2022-10-04T22:52:00.686Z,70.40
2022-10-04T22:54:34.791Z,70.40
2022-10-04T22:57:01.744Z,70.60
2022-10-04T22:59:48.966Z,70.50
2022-10-04T23:02:21.948Z,70.50
2022-10-04T23:04:54.237Z,70.60
2022-10-04T23:07:21.883Z,70.70
2022-10-04T23:09:49.087Z,70.70
2022-10-04T23:12:15.834Z,70.80
2022-10-04T23:14:42.703Z,70.80
2022-10-04T23:17:33.576Z,70.90
2022-10-04T23:20:14.511Z,70.90
2022-10-04T23:22:44.915Z,70.90
2022-10-04T23:25:18.889Z,70.90
2022-10-04T23:27:46.996Z,71.00
2022-10-04T23:30:16.231Z,71.00
2022-10-04T23:32:45.370Z,71.00
2022-10-04T23:35:18.463Z,71.10
2022-10-04T23:37:45.440Z,71.20
2022-10-04T23:40:15.023Z,71.20
2022-10-04T23:42:42.017Z,71.20
2022-10-04T23:45:25.123Z,71.30
2022-10-04T23:47:57.280Z,71.20
2022-10-04T23:50:29.097Z,71.30
2022-10-04T23:53:02.361Z,71.40
2022-10-04T23:55:34.085Z,71.40
2022-10-04T23:58:01.549Z,71.40
